Private Wetterstation Ehingen
Wetterdaten: aktuell Freitag, 28.04.2017 23:20
Datum Zeit Temperatur Luftfeuchte Luftdruck Regen Wind Richtung Richtung Sonnenschein Taupunkt Windchill Windben
28.04.2017 23:20 2,0 C 95 % 1018,9 hPa 0,0 l/m 6,7 km/h (2 Bft) W-SW 251 0 min 1,3 C 1,7 C 12,4 km/h (2 Bft)
28.04.2017 23:15 2,0 C 95 % 1018,9 hPa 0,0 l/m 0,0 km/h (0 Bft) SW 226 0 min 1,3 C 2,0 C 6,7 km/h (2 Bft)
28.04.2017 23:10 2,1 C 95 % 1018,9 hPa 0,0 l/m 0,0 km/h (0 Bft) SW 226 0 min 1,4 C 2,1 C 5,7 km/h (2 Bft)
28.04.2017 23:05 2,1 C 95 % 1018,9 hPa 0,0 l/m 4,8 km/h (1 Bft) SW 226 0 min 1,4 C 2,1 C 7,6 km/h (2 Bft)
28.04.2017 23:00 2,1 C 95 % 1018,9 hPa 0,0 l/m 5,7 km/h (2 Bft) SW 224 0 min 1,4 C 2,1 C 7,6 km/h (2 Bft)
28.04.2017 22:55 2,2 C 95 % 1018,8 hPa 0,0 l/m 4,8 km/h (1 Bft) SW 225 0 min 1,5 C 2,2 C 10,5 km/h (2 Bft)
28.04.2017 22:50 2,3 C 95 % 1018,8 hPa 0,0 l/m 6,7 km/h (2 Bft) S-SW 195 0 min 1,6 C 2,0 C 10,5 km/h (2 Bft)
28.04.2017 22:45 2,3 C 95 % 1018,8 hPa 0,0 l/m 5,7 km/h (2 Bft) W-SW 242 0 min 1,6 C 2,3 C 8,6 km/h (2 Bft)
28.04.2017 22:40 2,4 C 95 % 1017,7 hPa 0,0 l/m 6,7 km/h (2 Bft) W 259 0 min 1,7 C 2,1 C 11,4 km/h (2 Bft)
28.04.2017 22:35 2,4 C 95 % 1017,7 hPa 0,0 l/m 4,8 km/h (1 Bft) SW 226 0 min 1,7 C 2,4 C 8,6 km/h (2 Bft)
28.04.2017 22:30 2,4 C 95 % 1017,7 hPa 0,0 l/m 6,7 km/h (2 Bft) SW 228 0 min 1,7 C 2,1 C 8,6 km/h (2 Bft)
28.04.2017 22:25 2,5 C 95 % 1017,7 hPa 0,0 l/m 4,8 km/h (1 Bft) S-SW 210 0 min 1,8 C 2,5 C 8,6 km/h (2 Bft)
28.04.2017 22:20 2,6 C 95 % 1017,7 hPa 0,0 l/m 5,7 km/h (2 Bft) W-SW 237 0 min 1,9 C 2,6 C 11,4 km/h (2 Bft)
28.04.2017 22:15 2,6 C 95 % 1017,7 hPa 0,0 l/m 4,8 km/h (1 Bft) W-SW 250 0 min 1,9 C 2,6 C 7,6 km/h (2 Bft)
28.04.2017 22:10 2,6 C 95 % 1017,7 hPa 0,0 l/m 0,0 km/h (0 Bft) W-SW 250 0 min 1,9 C 2,6 C 6,7 km/h (2 Bft)
28.04.2017 22:05 2,7 C 95 % 1017,7 hPa 0,0 l/m 0,0 km/h (0 Bft) W-SW 250 0 min 2,0 C 2,7 C 0,0 km/h (0 Bft)
28.04.2017 22:00 2,7 C 95 % 1017,7 hPa 0,0 l/m 0,0 km/h (0 Bft) W-SW 250 0 min 2,0 C 2,7 C 4,8 km/h (1 Bft)
28.04.2017 21:55 2,8 C 95 % 1017,6 hPa 0,0 l/m 0,0 km/h (0 Bft) W-SW 250 0 min 2,1 C 2,8 C 6,7 km/h (2 Bft)
28.04.2017 21:50 2,9 C 95 % 1017,6 hPa 0,0 l/m 0,0 km/h (0 Bft) W-SW 250 0 min 2,2 C 2,9 C 0,0 km/h (0 Bft)
28.04.2017 21:45 3,0 C 95 % 1017,6 hPa 0,0 l/m 0,0 km/h (0 Bft) S-SO 168 0 min 2,3 C 3,0 C 7,6 km/h (2 Bft)
28.04.2017 21:40 3,0 C 95 % 1017,6 hPa 0,0 l/m 0,0 km/h (0 Bft) S 188 0 min 2,3 C 3,0 C 5,7 km/h (2 Bft)
_ Min-Zeit 07:05 23:20 06:10 - 23:15 - - - 23:20 19:45 22:05
Minimum _ 1,9 C 95 % 1011,4 hPa - 0,0 km/h (0 Bft) - - - 1,3 C -0,2 C 0,0 km/h (0 Bft)
_ Max-Zeit 17:35 18:10 23:20 06:00 17:45 - - 23:20 17:35 17:35 20:05
Maximum _ 5,9 C 97 % 1018,9 hPa 4,1 l/m 15,2 km/h
W-NW (3 Bft)
- - 0 min 5,5 C 5,9 C 18,5 km/h
SW (3 Bft)
Durchschnitt _ 3,5 C 97 % 1014,7 hPa #9,1 l/m 3,0 km/h (1 Bft) W - #0 min. 3,0 C 3,1 C 6,7 km/h (2 Bft)